sensor_id;sensor_type;location;lat;lon;timestamp;temperature;humidity
33269;DHT22;19640;50.944;5.260;2023-02-28T00:00:50;1.40;99.90
33269;DHT22;19640;50.944;5.260;2023-02-28T00:03:15;1.50;99.90
33269;DHT22;19640;50.944;5.260;2023-02-28T00:05:41;1.60;99.90
33269;DHT22;19640;50.944;5.260;2023-02-28T00:08:07;1.50;99.90
33269;DHT22;19640;50.944;5.260;2023-02-28T00:10:33;1.50;99.90
33269;DHT22;19640;50.944;5.260;2023-02-28T00:13:02;1.50;99.90
33269;DHT22;19640;50.944;5.260;2023-02-28T00:15:28;1.50;99.90
33269;DHT22;19640;50.944;5.260;2023-02-28T00:17:54;1.40;99.90
33269;DHT22;19640;50.944;5.260;2023-02-28T00:20:20;1.40;99.90
33269;DHT22;19640;50.944;5.260;2023-02-28T00:22:48;1.50;99.90
33269;DHT22;19640;50.944;5.260;2023-02-28T00:25:17;1.30;99.90
33269;DHT22;19640;50.944;5.260;2023-02-28T00:27:43;1.30;99.90
33269;DHT22;19640;50.944;5.260;2023-02-28T00:30:13;1.30;99.90
33269;DHT22;19640;50.944;5.260;2023-02-28T00:32:40;1.30;99.90
33269;DHT22;19640;50.944;5.260;2023-02-28T00:35:06;1.20;99.90
33269;DHT22;19640;50.944;5.260;2023-02-28T00:37:32;1.20;99.90
33269;DHT22;19640;50.944;5.260;2023-02-28T00:39:58;1.20;99.90
33269;DHT22;19640;50.944;5.260;2023-02-28T00:42:24;1.40;99.90
33269;DHT22;19640;50.944;5.260;2023-02-28T00:44:50;1.30;99.90
33269;DHT22;19640;50.944;5.260;2023-02-28T00:47:15;1.30;99.90
33269;DHT22;19640;50.944;5.260;2023-02-28T00:49:41;1.20;99.90
33269;DHT22;19640;50.944;5.260;2023-02-28T00:52:07;1.10;99.90
33269;DHT22;19640;50.944;5.260;2023-02-28T00:54:33;1.00;99.90
33269;DHT22;19640;50.944;5.260;2023-02-28T00:56:59;1.10;99.90
33269;DHT22;19640;50.944;5.260;2023-02-28T00:59:24;1.00;99.90
33269;DHT22;19640;50.944;5.260;2023-02-28T01:01:50;1.10;99.90
33269;DHT22;19640;50.944;5.260;2023-02-28T01:04:16;1.20;99.90
33269;DHT22;19640;50.944;5.260;2023-02-28T01:06:42;1.20;99.90
33269;DHT22;19640;50.944;5.260;2023-02-28T01:09:08;1.30;99.90
33269;DHT22;19640;50.944;5.260;2023-02-28T01:11:34;1.30;99.90
33269;DHT22;19640;50.944;5.260;2023-02-28T01:14:01;1.20;99.90
33269;DHT22;19640;50.944;5.260;2023-02-28T01:16:27;1.10;99.90
33269;DHT22;19640;50.944;5.260;2023-02-28T01:18:53;1.10;99.90
33269;DHT22;19640;50.944;5.260;2023-02-28T01:21:20;1.10;99.90
33269;DHT22;19640;50.944;5.260;2023-02-28T01:23:47;1.10;99.90
33269;DHT22;19640;50.944;5.260;2023-02-28T01:26:19;1.10;99.90
33269;DHT22;19640;50.944;5.260;2023-02-28T01:28:45;0.90;99.90
33269;DHT22;19640;50.944;5.260;2023-02-28T01:31:12;0.90;99.90
33269;DHT22;19640;50.944;5.260;2023-02-28T01:33:38;1.00;99.90
33269;DHT22;19640;50.944;5.260;2023-02-28T01:36:06;1.00;99.90
33269;DHT22;19640;50.944;5.260;2023-02-28T01:38:32;1.00;99.90
33269;DHT22;19640;50.944;5.260;2023-02-28T01:40:58;1.00;99.90
33269;DHT22;19640;50.944;5.260;2023-02-28T01:43:29;1.10;99.90
33269;DHT22;19640;50.944;5.260;2023-02-28T01:45:56;1.00;99.90
33269;DHT22;19640;50.944;5.260;2023-02-28T01:48:26;0.90;99.90
33269;DHT22;19640;50.944;5.260;2023-02-28T01:50:54;0.80;99.90
33269;DHT22;19640;50.944;5.260;2023-02-28T01:53:27;0.70;99.90
33269;DHT22;19640;50.944;5.260;2023-02-28T01:55:54;0.60;99.90
33269;DHT22;19640;50.944;5.260;2023-02-28T01:58:20;0.70;99.90
33269;DHT22;19640;50.944;5.260;2023-02-28T02:00:46;0.60;99.90
33269;DHT22;19640;50.944;5.260;2023-02-28T02:03:15;0.60;99.90
33269;DHT22;19640;50.944;5.260;2023-02-28T02:05:44;0.50;99.90
33269;DHT22;19640;50.944;5.260;2023-02-28T02:08:23;0.50;99.90
33269;DHT22;19640;50.944;5.260;2023-02-28T02:10:55;0.40;99.90
33269;DHT22;19640;50.944;5.260;2023-02-28T02:19:36;0.10;99.90
33269;DHT22;19640;50.944;5.260;2023-02-28T02:36:24;0.50;99.90
33269;DHT22;19640;50.944;5.260;2023-02-28T02:41:45;0.40;99.90
33269;DHT22;19640;50.944;5.260;2023-02-28T02:46:49;0.30;99.90
33269;DHT22;19640;50.944;5.260;2023-02-28T02:49:25;0.20;99.90
33269;DHT22;19640;50.944;5.260;2023-02-28T02:51:53;0.30;99.90
33269;DHT22;19640;50.944;5.260;2023-02-28T02:54:27;0.30;99.90
33269;DHT22;19640;50.944;5.260;2023-02-28T02:56:55;0.10;99.90
33269;DHT22;19640;50.944;5.260;2023-02-28T02:59:22;0.10;99.90
33269;DHT22;19640;50.944;5.260;2023-02-28T03:01:53;0.20;99.90
33269;DHT22;19640;50.944;5.260;2023-02-28T03:04:22;0.20;99.90
33269;DHT22;19640;50.944;5.260;2023-02-28T03:06:49;0.20;99.90
33269;DHT22;19640;50.944;5.260;2023-02-28T03:09:18;0.20;99.90
33269;DHT22;19640;50.944;5.260;2023-02-28T03:11:44;0.20;99.90
33269;DHT22;19640;50.944;5.260;2023-02-28T03:14:28;0.20;99.90
33269;DHT22;19640;50.944;5.260;2023-02-28T03:22:51;0.00;99.90
33269;DHT22;19640;50.944;5.260;2023-02-28T03:28:04;0.00;99.90
33269;DHT22;19640;50.944;5.260;2023-02-28T03:31:01;0.00;99.90
33269;DHT22;19640;50.944;5.260;2023-02-28T03:33:32;0.00;99.90
33269;DHT22;19640;50.944;5.260;2023-02-28T03:36:04;0.10;99.90
33269;DHT22;19640;50.944;5.260;2023-02-28T03:41:17;0.20;99.90
33269;DHT22;19640;50.944;5.260;2023-02-28T03:44:21;0.30;99.90
33269;DHT22;19640;50.944;5.260;2023-02-28T03:46:56;0.30;99.90
33269;DHT22;19640;50.944;5.260;2023-02-28T03:49:27;0.30;99.90
33269;DHT22;19640;50.944;5.260;2023-02-28T03:51:56;0.20;99.90
33269;DHT22;19640;50.944;5.260;2023-02-28T03:54:31;0.20;99.90
33269;DHT22;19640;50.944;5.260;2023-02-28T03:57:07;0.20;99.90
33269;DHT22;19640;50.944;5.260;2023-02-28T03:59:49;0.20;99.90
33269;DHT22;19640;50.944;5.260;2023-02-28T04:02:16;0.10;99.90
33269;DHT22;19640;50.944;5.260;2023-02-28T04:04:42;0.10;99.90
33269;DHT22;19640;50.944;5.260;2023-02-28T04:07:13;0.10;99.90
33269;DHT22;19640;50.944;5.260;2023-02-28T04:09:39;0.10;99.90
33269;DHT22;19640;50.944;5.260;2023-02-28T04:12:05;0.10;99.90
33269;DHT22;19640;50.944;5.260;2023-02-28T04:14:31;0.20;99.90
33269;DHT22;19640;50.944;5.260;2023-02-28T04:16:56;0.20;99.90
33269;DHT22;19640;50.944;5.260;2023-02-28T04:19:22;0.30;99.90
33269;DHT22;19640;50.944;5.260;2023-02-28T04:21:50;0.20;99.90
33269;DHT22;19640;50.944;5.260;2023-02-28T04:24:19;0.00;99.90
33269;DHT22;19640;50.944;5.260;2023-02-28T04:26:47;0.00;99.90
33269;DHT22;19640;50.944;5.260;2023-02-28T04:29:15;0.00;99.90
33269;DHT22;19640;50.944;5.260;2023-02-28T04:31:43;0.00;99.90
33269;DHT22;19640;50.944;5.260;2023-02-28T04:34:08;0.10;99.90
33269;DHT22;19640;50.944;5.260;2023-02-28T04:36:34;0.10;99.90
33269;DHT22;19640;50.944;5.260;2023-02-28T04:39:00;0.10;99.90
33269;DHT22;19640;50.944;5.260;2023-02-28T04:41:25;0.10;99.90
33269;DHT22;19640;50.944;5.260;2023-02-28T04:43:52;0.10;99.90
33269;DHT22;19640;50.944;5.260;2023-02-28T04:46:18;0.10;99.90
33269;DHT22;19640;50.944;5.260;2023-02-28T04:48:44;0.10;99.90
33269;DHT22;19640;50.944;5.260;2023-02-28T04:51:13;0.10;99.90
33269;DHT22;19640;50.944;5.260;2023-02-28T04:53:40;0.10;99.90
33269;DHT22;19640;50.944;5.260;2023-02-28T04:56:07;0.20;99.90
33269;DHT22;19640;50.944;5.260;2023-02-28T04:58:33;0.00;99.90
33269;DHT22;19640;50.944;5.260;2023-02-28T05:01:27;0.10;99.90
33269;DHT22;19640;50.944;5.260;2023-02-28T05:03:54;0.30;99.90
33269;DHT22;19640;50.944;5.260;2023-02-28T05:06:22;0.30;99.90
33269;DHT22;19640;50.944;5.260;2023-02-28T05:08:49;0.10;99.90
33269;DHT22;19640;50.944;5.260;2023-02-28T05:11:35;0.10;99.90
33269;DHT22;19640;50.944;5.260;2023-02-28T05:14:05;0.10;99.90
33269;DHT22;19640;50.944;5.260;2023-02-28T05:16:32;0.00;99.90
33269;DHT22;19640;50.944;5.260;2023-02-28T05:18:58;0.10;99.90
33269;DHT22;19640;50.944;5.260;2023-02-28T05:21:40;0.20;99.90
33269;DHT22;19640;50.944;5.260;2023-02-28T05:24:12;0.20;99.90
33269;DHT22;19640;50.944;5.260;2023-02-28T05:26:42;0.20;99.90
33269;DHT22;19640;50.944;5.260;2023-02-28T05:29:09;0.20;99.90
33269;DHT22;19640;50.944;5.260;2023-02-28T05:31:35;0.20;99.90
33269;DHT22;19640;50.944;5.260;2023-02-28T05:34:01;0.20;99.90
33269;DHT22;19640;50.944;5.260;2023-02-28T05:36:29;0.10;99.90
33269;DHT22;19640;50.944;5.260;2023-02-28T05:38:55;0.10;99.90
33269;DHT22;19640;50.944;5.260;2023-02-28T05:41:20;0.10;99.90
33269;DHT22;19640;50.944;5.260;2023-02-28T05:43:47;0.10;99.90
33269;DHT22;19640;50.944;5.260;2023-02-28T05:46:14;0.00;99.90
33269;DHT22;19640;50.944;5.260;2023-02-28T05:48:40;0.00;99.90
33269;DHT22;19640;50.944;5.260;2023-02-28T05:51:07;0.00;99.90
33269;DHT22;19640;50.944;5.260;2023-02-28T05:53:34;0.00;99.90
33269;DHT22;19640;50.944;5.260;2023-02-28T05:56:00;-0.10;99.90
33269;DHT22;19640;50.944;5.260;2023-02-28T05:58:26;-0.10;99.90
33269;DHT22;19640;50.944;5.260;2023-02-28T06:00:56;-0.10;99.90
33269;DHT22;19640;50.944;5.260;2023-02-28T06:03:22;0.00;99.90
33269;DHT22;19640;50.944;5.260;2023-02-28T06:05:48;0.10;99.90
33269;DHT22;19640;50.944;5.260;2023-02-28T06:08:13;0.10;99.90
33269;DHT22;19640;50.944;5.260;2023-02-28T06:10:39;0.00;99.90
33269;DHT22;19640;50.944;5.260;2023-02-28T06:13:05;0.00;99.90
33269;DHT22;19640;50.944;5.260;2023-02-28T06:15:31;-0.10;99.90
33269;DHT22;19640;50.944;5.260;2023-02-28T06:17:56;-0.10;99.90
33269;DHT22;19640;50.944;5.260;2023-02-28T06:20:23;-0.40;99.90
33269;DHT22;19640;50.944;5.260;2023-02-28T06:22:49;-0.40;99.90
33269;DHT22;19640;50.944;5.260;2023-02-28T06:25:16;-0.50;99.90
33269;DHT22;19640;50.944;5.260;2023-02-28T06:27:41;-0.60;99.90
33269;DHT22;19640;50.944;5.260;2023-02-28T06:30:09;-0.60;99.90
33269;DHT22;19640;50.944;5.260;2023-02-28T06:32:35;-0.70;99.90
33269;DHT22;19640;50.944;5.260;2023-02-28T06:35:02;-0.70;99.90
33269;DHT22;19640;50.944;5.260;2023-02-28T06:37:28;-0.60;99.90
33269;DHT22;19640;50.944;5.260;2023-02-28T06:39:54;-0.60;99.90
33269;DHT22;19640;50.944;5.260;2023-02-28T06:42:22;-0.70;99.90
33269;DHT22;19640;50.944;5.260;2023-02-28T06:44:51;-0.70;99.90
33269;DHT22;19640;50.944;5.260;2023-02-28T06:47:16;-0.70;99.90
33269;DHT22;19640;50.944;5.260;2023-02-28T06:49:42;-0.80;99.90
33269;DHT22;19640;50.944;5.260;2023-02-28T06:52:10;-0.70;99.90
33269;DHT22;19640;50.944;5.260;2023-02-28T06:54:36;-0.60;99.90
33269;DHT22;19640;50.944;5.260;2023-02-28T06:57:02;-0.60;99.90
33269;DHT22;19640;50.944;5.260;2023-02-28T06:59:28;-0.70;99.90
33269;DHT22;19640;50.944;5.260;2023-02-28T07:01:54;-0.60;99.90
33269;DHT22;19640;50.944;5.260;2023-02-28T07:04:21;-0.60;99.90
33269;DHT22;19640;50.944;5.260;2023-02-28T07:06:46;-0.50;99.90
33269;DHT22;19640;50.944;5.260;2023-02-28T07:09:12;-0.40;99.90
33269;DHT22;19640;50.944;5.260;2023-02-28T07:11:40;-0.40;99.90
33269;DHT22;19640;50.944;5.260;2023-02-28T07:14:06;-0.20;99.90
33269;DHT22;19640;50.944;5.260;2023-02-28T07:16:32;-0.10;99.90
33269;DHT22;19640;50.944;5.260;2023-02-28T07:18:58;-0.10;99.90
33269;DHT22;19640;50.944;5.260;2023-02-28T07:21:24;-0.10;99.90
33269;DHT22;19640;50.944;5.260;2023-02-28T07:23:50;-0.10;99.90
33269;DHT22;19640;50.944;5.260;2023-02-28T07:26:18;-0.10;99.90
33269;DHT22;19640;50.944;5.260;2023-02-28T07:28:46;0.00;99.90
33269;DHT22;19640;50.944;5.260;2023-02-28T07:31:12;0.00;99.90
33269;DHT22;19640;50.944;5.260;2023-02-28T07:33:40;0.00;99.90
33269;DHT22;19640;50.944;5.260;2023-02-28T07:36:08;0.10;99.90
33269;DHT22;19640;50.944;5.260;2023-02-28T07:38:35;0.10;99.90
33269;DHT22;19640;50.944;5.260;2023-02-28T07:41:02;0.20;99.90
33269;DHT22;19640;50.944;5.260;2023-02-28T07:43:32;0.30;99.90
33269;DHT22;19640;50.944;5.260;2023-02-28T07:46:06;0.60;99.90
33269;DHT22;19640;50.944;5.260;2023-02-28T07:48:32;1.10;99.90
33269;DHT22;19640;50.944;5.260;2023-02-28T07:50:58;1.80;99.90
33269;DHT22;19640;50.944;5.260;2023-02-28T07:53:24;2.30;99.90
33269;DHT22;19640;50.944;5.260;2023-02-28T07:55:50;2.40;99.90
33269;DHT22;19640;50.944;5.260;2023-02-28T07:58:15;2.10;99.90
33269;DHT22;19640;50.944;5.260;2023-02-28T08:00:41;2.10;99.90
33269;DHT22;19640;50.944;5.260;2023-02-28T08:03:10;1.80;99.90
33269;DHT22;19640;50.944;5.260;2023-02-28T08:05:40;1.60;99.90
33269;DHT22;19640;50.944;5.260;2023-02-28T08:08:07;1.50;99.90
33269;DHT22;19640;50.944;5.260;2023-02-28T08:10:32;1.40;99.90
33269;DHT22;19640;50.944;5.260;2023-02-28T08:12:58;1.50;99.90
33269;DHT22;19640;50.944;5.260;2023-02-28T08:15:24;1.60;99.90
33269;DHT22;19640;50.944;5.260;2023-02-28T08:17:49;1.50;99.90
33269;DHT22;19640;50.944;5.260;2023-02-28T08:20:15;1.60;99.90
33269;DHT22;19640;50.944;5.260;2023-02-28T08:22:41;1.80;99.90
33269;DHT22;19640;50.944;5.260;2023-02-28T08:25:07;1.80;99.90
33269;DHT22;19640;50.944;5.260;2023-02-28T08:27:33;1.80;99.90
33269;DHT22;19640;50.944;5.260;2023-02-28T08:29:59;1.80;99.90
33269;DHT22;19640;50.944;5.260;2023-02-28T08:32:25;1.80;99.90
33269;DHT22;19640;50.944;5.260;2023-02-28T08:34:50;1.80;99.90
33269;DHT22;19640;50.944;5.260;2023-02-28T08:37:16;1.90;99.90
33269;DHT22;19640;50.944;5.260;2023-02-28T08:39:42;1.90;99.90
33269;DHT22;19640;50.944;5.260;2023-02-28T08:42:08;2.10;99.90
33269;DHT22;19640;50.944;5.260;2023-02-28T08:44:33;2.10;99.90
33269;DHT22;19640;50.944;5.260;2023-02-28T08:46:59;2.20;99.90
33269;DHT22;19640;50.944;5.260;2023-02-28T08:49:25;2.30;99.90
33269;DHT22;19640;50.944;5.260;2023-02-28T08:51:50;2.40;99.90
33269;DHT22;19640;50.944;5.260;2023-02-28T08:54:16;2.30;99.90
33269;DHT22;19640;50.944;5.260;2023-02-28T08:56:45;2.30;99.90
33269;DHT22;19640;50.944;5.260;2023-02-28T08:59:13;2.30;99.90
33269;DHT22;19640;50.944;5.260;2023-02-28T09:01:39;2.30;99.90
33269;DHT22;19640;50.944;5.260;2023-02-28T09:04:06;2.40;99.90
33269;DHT22;19640;50.944;5.260;2023-02-28T09:06:34;2.50;99.90
33269;DHT22;19640;50.944;5.260;2023-02-28T09:09:00;2.50;99.90
33269;DHT22;19640;50.944;5.260;2023-02-28T09:11:27;2.50;99.90
33269;DHT22;19640;50.944;5.260;2023-02-28T09:13:53;2.60;99.90
33269;DHT22;19640;50.944;5.260;2023-02-28T09:16:21;2.70;99.90
33269;DHT22;19640;50.944;5.260;2023-02-28T09:18:48;2.90;99.90
33269;DHT22;19640;50.944;5.260;2023-02-28T09:21:17;3.00;99.90
33269;DHT22;19640;50.944;5.260;2023-02-28T09:23:44;3.10;99.90
33269;DHT22;19640;50.944;5.260;2023-02-28T09:26:18;3.00;99.90
33269;DHT22;19640;50.944;5.260;2023-02-28T09:28:45;3.00;99.90
33269;DHT22;19640;50.944;5.260;2023-02-28T09:31:16;2.90;99.90
33269;DHT22;19640;50.944;5.260;2023-02-28T09:33:42;3.00;99.90
33269;DHT22;19640;50.944;5.260;2023-02-28T09:36:08;3.00;99.90
33269;DHT22;19640;50.944;5.260;2023-02-28T09:38:34;3.20;99.90
33269;DHT22;19640;50.944;5.260;2023-02-28T09:41:08;3.30;99.90
33269;DHT22;19640;50.944;5.260;2023-02-28T09:43:38;3.50;99.90
33269;DHT22;19640;50.944;5.260;2023-02-28T09:46:08;3.60;99.90
33269;DHT22;19640;50.944;5.260;2023-02-28T09:48:41;3.50;98.90
33269;DHT22;19640;50.944;5.260;2023-02-28T09:54:01;3.80;99.90
33269;DHT22;19640;50.944;5.260;2023-02-28T09:56:36;3.80;98.60
33269;DHT22;19640;50.944;5.260;2023-02-28T10:05:02;3.90;98.10
33269;DHT22;19640;50.944;5.260;2023-02-28T10:13:00;4.10;96.70
33269;DHT22;19640;50.944;5.260;2023-02-28T10:15:30;4.10;96.90
33269;DHT22;19640;50.944;5.260;2023-02-28T10:18:01;4.00;97.10
33269;DHT22;19640;50.944;5.260;2023-02-28T10:20:33;3.90;96.40
33269;DHT22;19640;50.944;5.260;2023-02-28T10:23:09;4.00;97.60
33269;DHT22;19640;50.944;5.260;2023-02-28T10:25:37;4.00;97.10
33269;DHT22;19640;50.944;5.260;2023-02-28T10:28:14;4.00;96.50
33269;DHT22;19640;50.944;5.260;2023-02-28T10:30:51;4.10;97.00
33269;DHT22;19640;50.944;5.260;2023-02-28T10:35:53;4.20;96.40
33269;DHT22;19640;50.944;5.260;2023-02-28T10:38:23;4.10;96.10
33269;DHT22;19640;50.944;5.260;2023-02-28T10:40:49;4.10;95.60
33269;DHT22;19640;50.944;5.260;2023-02-28T10:56:04;4.70;95.40
33269;DHT22;19640;50.944;5.260;2023-02-28T11:04:03;4.50;93.00
33269;DHT22;19640;50.944;5.260;2023-02-28T11:06:31;4.10;93.10
33269;DHT22;19640;50.944;5.260;2023-02-28T11:09:22;4.20;94.00
33269;DHT22;19640;50.944;5.260;2023-02-28T11:11:49;4.50;94.40
33269;DHT22;19640;50.944;5.260;2023-02-28T11:14:21;4.60;93.10
33269;DHT22;19640;50.944;5.260;2023-02-28T11:16:48;4.60;93.00
33269;DHT22;19640;50.944;5.260;2023-02-28T11:19:38;4.50;93.10
33269;DHT22;19640;50.944;5.260;2023-02-28T11:22:05;4.60;92.80
33269;DHT22;19640;50.944;5.260;2023-02-28T11:24:43;4.70;93.20
33269;DHT22;19640;50.944;5.260;2023-02-28T11:29:57;4.90;93.30
33269;DHT22;19640;50.944;5.260;2023-02-28T11:32:28;4.70;92.30
33269;DHT22;19640;50.944;5.260;2023-02-28T11:37:37;4.70;93.40
33269;DHT22;19640;50.944;5.260;2023-02-28T11:40:13;4.90;92.60
33269;DHT22;19640;50.944;5.260;2023-02-28T11:45:51;4.80;91.70
33269;DHT22;19640;50.944;5.260;2023-02-28T11:54:57;4.80;92.20
33269;DHT22;19640;50.944;5.260;2023-02-28T12:15:59;5.10;91.20
33269;DHT22;19640;50.944;5.260;2023-02-28T12:21:25;5.20;92.50
33269;DHT22;19640;50.944;5.260;2023-02-28T12:27:02;5.20;91.50
33269;DHT22;19640;50.944;5.260;2023-02-28T12:29:37;5.10;92.00
33269;DHT22;19640;50.944;5.260;2023-02-28T12:35:04;5.10;91.80
33269;DHT22;19640;50.944;5.260;2023-02-28T12:37:40;5.10;92.10
33269;DHT22;19640;50.944;5.260;2023-02-28T12:40:15;5.30;92.10
33269;DHT22;19640;50.944;5.260;2023-02-28T12:42:46;5.00;91.70
33269;DHT22;19640;50.944;5.260;2023-02-28T12:45:24;4.80;91.40
33269;DHT22;19640;50.944;5.260;2023-02-28T12:48:00;5.00;91.70
33269;DHT22;19640;50.944;5.260;2023-02-28T12:50:27;5.10;92.20
33269;DHT22;19640;50.944;5.260;2023-02-28T12:53:32;5.20;92.20
33269;DHT22;19640;50.944;5.260;2023-02-28T13:09:41;5.20;92.80
33269;DHT22;19640;50.944;5.260;2023-02-28T13:12:16;5.20;92.00
33269;DHT22;19640;50.944;5.260;2023-02-28T13:14:42;5.20;92.50
33269;DHT22;19640;50.944;5.260;2023-02-28T13:19:58;5.20;91.80
33269;DHT22;19640;50.944;5.260;2023-02-28T13:22:44;5.30;92.30
33269;DHT22;19640;50.944;5.260;2023-02-28T13:27:50;5.30;91.80
33269;DHT22;19640;50.944;5.260;2023-02-28T13:35:44;5.40;92.30
33269;DHT22;19640;50.944;5.260;2023-02-28T13:38:22;5.40;92.50
33269;DHT22;19640;50.944;5.260;2023-02-28T13:40:48;5.30;91.90
33269;DHT22;19640;50.944;5.260;2023-02-28T13:43:17;5.20;92.00
33269;DHT22;19640;50.944;5.260;2023-02-28T13:46:07;5.30;92.20
33269;DHT22;19640;50.944;5.260;2023-02-28T13:48:33;5.20;91.70
33269;DHT22;19640;50.944;5.260;2023-02-28T13:51:38;5.40;92.30
33269;DHT22;19640;50.944;5.260;2023-02-28T13:53:57;5.50;92.10
33269;DHT22;19640;50.944;5.260;2023-02-28T13:56:42;5.40;92.20
33269;DHT22;19640;50.944;5.260;2023-02-28T13:59:31;5.20;92.80
33269;DHT22;19640;50.944;5.260;2023-02-28T14:02:03;5.40;92.90
33269;DHT22;19640;50.944;5.260;2023-02-28T14:05:06;5.60;92.50
33269;DHT22;19640;50.944;5.260;2023-02-28T14:07:47;5.60;92.50
33269;DHT22;19640;50.944;5.260;2023-02-28T14:10:25;5.60;91.80
33269;DHT22;19640;50.944;5.260;2023-02-28T14:21:03;5.60;92.70
33269;DHT22;19640;50.944;5.260;2023-02-28T14:23:41;5.80;93.70
33269;DHT22;19640;50.944;5.260;2023-02-28T14:26:26;5.90;93.50
33269;DHT22;19640;50.944;5.260;2023-02-28T14:32:15;5.80;94.30
33269;DHT22;19640;50.944;5.260;2023-02-28T14:37:41;5.40;93.20
33269;DHT22;19640;50.944;5.260;2023-02-28T14:42:58;5.40;93.00
33269;DHT22;19640;50.944;5.260;2023-02-28T14:45:30;5.50;93.70
33269;DHT22;19640;50.944;5.260;2023-02-28T14:47:57;5.60;94.20
33269;DHT22;19640;50.944;5.260;2023-02-28T14:50:29;5.60;94.60
33269;DHT22;19640;50.944;5.260;2023-02-28T14:52:56;5.60;92.40
33269;DHT22;19640;50.944;5.260;2023-02-28T14:55:31;5.40;93.40
33269;DHT22;19640;50.944;5.260;2023-02-28T14:58:05;5.40;93.70
33269;DHT22;19640;50.944;5.260;2023-02-28T15:00:34;5.40;92.90
33269;DHT22;19640;50.944;5.260;2023-02-28T15:03:11;5.40;93.70
33269;DHT22;19640;50.944;5.260;2023-02-28T15:05:42;5.40;92.50
33269;DHT22;19640;50.944;5.260;2023-02-28T15:08:16;5.30;93.10
33269;DHT22;19640;50.944;5.260;2023-02-28T15:11:00;5.20;93.80
33269;DHT22;19640;50.944;5.260;2023-02-28T15:13:51;5.30;93.90
33269;DHT22;19640;50.944;5.260;2023-02-28T15:16:24;5.30;93.90
33269;DHT22;19640;50.944;5.260;2023-02-28T15:19:00;5.30;93.90
33269;DHT22;19640;50.944;5.260;2023-02-28T15:21:35;5.40;94.30
33269;DHT22;19640;50.944;5.260;2023-02-28T15:26:40;5.50;93.60
33269;DHT22;19640;50.944;5.260;2023-02-28T15:29:16;5.40;93.30
33269;DHT22;19640;50.944;5.260;2023-02-28T15:31:50;5.30;93.20
33269;DHT22;19640;50.944;5.260;2023-02-28T15:34:33;5.30;93.70
33269;DHT22;19640;50.944;5.260;2023-02-28T15:36:59;5.30;93.10
33269;DHT22;19640;50.944;5.260;2023-02-28T15:39:26;5.30;93.80
33269;DHT22;19640;50.944;5.260;2023-02-28T15:42:16;5.30;92.90
33269;DHT22;19640;50.944;5.260;2023-02-28T15:44:43;5.30;93.10
33269;DHT22;19640;50.944;5.260;2023-02-28T15:47:24;5.30;93.40
33269;DHT22;19640;50.944;5.260;2023-02-28T15:50:03;5.40;93.10
33269;DHT22;19640;50.944;5.260;2023-02-28T15:52:41;5.40;92.70
33269;DHT22;19640;50.944;5.260;2023-02-28T15:55:20;5.40;93.30
33269;DHT22;19640;50.944;5.260;2023-02-28T15:57:51;5.50;92.70
33269;DHT22;19640;50.944;5.260;2023-02-28T16:00:23;5.40;93.20
33269;DHT22;19640;50.944;5.260;2023-02-28T16:02:49;5.50;92.50
33269;DHT22;19640;50.944;5.260;2023-02-28T16:05:29;5.50;92.60
33269;DHT22;19640;50.944;5.260;2023-02-28T16:08:11;5.50;92.70
33269;DHT22;19640;50.944;5.260;2023-02-28T16:10:38;5.30;92.70
33269;DHT22;19640;50.944;5.260;2023-02-28T16:13:04;5.30;93.30
33269;DHT22;19640;50.944;5.260;2023-02-28T16:15:36;5.30;93.00
33269;DHT22;19640;50.944;5.260;2023-02-28T16:18:10;5.20;93.30
33269;DHT22;19640;50.944;5.260;2023-02-28T16:20:35;5.10;93.60
33269;DHT22;19640;50.944;5.260;2023-02-28T16:23:01;5.20;94.00
33269;DHT22;19640;50.944;5.260;2023-02-28T16:25:39;5.20;93.50
33269;DHT22;19640;50.944;5.260;2023-02-28T16:28:19;5.20;93.60
33269;DHT22;19640;50.944;5.260;2023-02-28T16:30:45;5.20;93.10
33269;DHT22;19640;50.944;5.260;2023-02-28T16:33:11;5.20;93.40
33269;DHT22;19640;50.944;5.260;2023-02-28T16:35:36;5.10;93.40
33269;DHT22;19640;50.944;5.260;2023-02-28T16:38:02;5.00;94.00
33269;DHT22;19640;50.944;5.260;2023-02-28T16:40:29;5.10;93.60
33269;DHT22;19640;50.944;5.260;2023-02-28T16:42:59;5.10;93.50
33269;DHT22;19640;50.944;5.260;2023-02-28T16:45:26;5.10;94.00
33269;DHT22;19640;50.944;5.260;2023-02-28T16:47:53;5.10;93.50
33269;DHT22;19640;50.944;5.260;2023-02-28T16:52:45;5.00;93.50
33269;DHT22;19640;50.944;5.260;2023-02-28T16:55:11;5.10;93.40
33269;DHT22;19640;50.944;5.260;2023-02-28T16:57:38;5.20;93.40
33269;DHT22;19640;50.944;5.260;2023-02-28T17:00:05;5.20;93.20
33269;DHT22;19640;50.944;5.260;2023-02-28T17:02:33;5.10;93.70
33269;DHT22;19640;50.944;5.260;2023-02-28T17:04:59;5.00;93.60
33269;DHT22;19640;50.944;5.260;2023-02-28T17:07:25;5.00;93.50
33269;DHT22;19640;50.944;5.260;2023-02-28T17:09:50;4.90;93.90
33269;DHT22;19640;50.944;5.260;2023-02-28T17:12:16;4.90;93.80
33269;DHT22;19640;50.944;5.260;2023-02-28T17:14:42;4.90;93.90
33269;DHT22;19640;50.944;5.260;2023-02-28T17:17:20;4.90;93.80
33269;DHT22;19640;50.944;5.260;2023-02-28T17:19:47;5.00;93.80
33269;DHT22;19640;50.944;5.260;2023-02-28T17:22:13;5.00;93.70
33269;DHT22;19640;50.944;5.260;2023-02-28T17:24:39;4.80;93.70
33269;DHT22;19640;50.944;5.260;2023-02-28T17:27:04;4.70;94.20
33269;DHT22;19640;50.944;5.260;2023-02-28T17:29:31;4.60;94.40
33269;DHT22;19640;50.944;5.260;2023-02-28T17:31:56;4.70;94.50
33269;DHT22;19640;50.944;5.260;2023-02-28T17:34:22;4.60;94.50
33269;DHT22;19640;50.944;5.260;2023-02-28T17:36:50;4.60;94.50
33269;DHT22;19640;50.944;5.260;2023-02-28T17:39:17;4.40;94.90
33269;DHT22;19640;50.944;5.260;2023-02-28T17:41:50;4.40;94.90
33269;DHT22;19640;50.944;5.260;2023-02-28T17:44:17;4.50;95.00
33269;DHT22;19640;50.944;5.260;2023-02-28T17:46:43;4.40;95.10
33269;DHT22;19640;50.944;5.260;2023-02-28T17:49:09;4.40;95.40
33269;DHT22;19640;50.944;5.260;2023-02-28T17:51:35;4.40;95.30
33269;DHT22;19640;50.944;5.260;2023-02-28T17:54:01;4.40;95.70
33269;DHT22;19640;50.944;5.260;2023-02-28T17:56:26;4.50;95.60
33269;DHT22;19640;50.944;5.260;2023-02-28T17:58:53;4.60;95.50
33269;DHT22;19640;50.944;5.260;2023-02-28T18:01:20;4.70;95.10
33269;DHT22;19640;50.944;5.260;2023-02-28T18:03:46;4.70;94.90
33269;DHT22;19640;50.944;5.260;2023-02-28T18:06:35;4.60;95.10
33269;DHT22;19640;50.944;5.260;2023-02-28T18:09:01;4.60;95.20
33269;DHT22;19640;50.944;5.260;2023-02-28T18:11:27;4.60;95.40
33269;DHT22;19640;50.944;5.260;2023-02-28T18:14:07;4.60;95.50
33269;DHT22;19640;50.944;5.260;2023-02-28T18:16:33;4.50;95.50
33269;DHT22;19640;50.944;5.260;2023-02-28T18:18:59;4.50;96.20
33269;DHT22;19640;50.944;5.260;2023-02-28T18:21:25;4.40;96.20
33269;DHT22;19640;50.944;5.260;2023-02-28T18:23:50;4.40;96.80
33269;DHT22;19640;50.944;5.260;2023-02-28T18:26:18;4.30;96.90
33269;DHT22;19640;50.944;5.260;2023-02-28T18:28:47;4.20;96.50
33269;DHT22;19640;50.944;5.260;2023-02-28T18:31:17;4.20;96.80
33269;DHT22;19640;50.944;5.260;2023-02-28T18:33:44;4.20;97.00
33269;DHT22;19640;50.944;5.260;2023-02-28T18:36:12;4.10;97.70
33269;DHT22;19640;50.944;5.260;2023-02-28T18:38:38;4.10;98.00
33269;DHT22;19640;50.944;5.260;2023-02-28T18:41:05;4.10;97.70